Terminal Aerodrome Forecast
Issued by NWS

Home | Current Version | Previous Version | Graphics & Text | Print | Product List | Glossary On
Versions: 1 2 3 4 5 6 7 8 9 10 11 12 13 14 15 16 17
000
FTUS45 KGGW 161732
TAFSDY
TAF
KSDY 161732Z 1618/1718 16016KT P6SM BKN090
     FM162300 22012KT P6SM BKN110
     FM170200 25009KT P6SM BKN070
     FM170600 28006KT P6SM BKN140
     FM170900 VRB03KT P6SM SCT070=

USA.gov is the U.S. government's official web portal to all federal, state and local government web resources and services.